createdAt,value
2022-10-20T00:01:09.713Z,76586.44
2022-10-20T00:11:16.483Z,76602.63
2022-10-20T00:21:26.107Z,76620.84
2022-10-20T00:31:29.648Z,76622.88
2022-10-20T00:41:34.372Z,76622.88
2022-10-20T00:51:37.678Z,76620.84
2022-10-20T01:01:40.569Z,76639.06
2022-10-20T01:11:45.659Z,76637.03
2022-10-20T01:22:25.633Z,76659.31
2022-10-20T01:32:46.370Z,76675.50
2022-10-20T01:42:52.158Z,76689.69
2022-10-20T01:52:59.958Z,76693.72
2022-10-20T02:03:39.627Z,76693.72
2022-10-20T02:13:42.622Z,76697.78
2022-10-20T02:23:50.946Z,76697.78
2022-10-20T02:33:55.168Z,76693.72
2022-10-20T02:43:59.120Z,76693.72
2022-10-20T02:54:01.656Z,76699.81
2022-10-20T03:04:03.759Z,76705.88
2022-10-20T03:14:05.890Z,76713.97
2022-10-20T03:24:14.686Z,76713.97
2022-10-20T03:34:16.689Z,76722.06
2022-10-20T03:44:18.845Z,76742.31
2022-10-20T03:54:23.409Z,76750.41
2022-10-20T04:04:26.581Z,76756.47
2022-10-20T04:14:33.212Z,76766.59
2022-10-20T04:24:38.329Z,76774.69
2022-10-20T04:34:43.254Z,76790.91
2022-10-20T04:44:48.193Z,76790.91
2022-10-20T04:54:59.844Z,76805.06
2022-10-20T05:05:01.993Z,76794.94
2022-10-20T05:15:09.244Z,76799.00
2022-10-20T05:25:35.012Z,76786.84
2022-10-20T05:35:35.835Z,76701.81
2022-10-20T05:45:40.404Z,76596.56
2022-10-20T05:55:42.572Z,76519.63
2022-10-20T06:05:49.195Z,76416.41
2022-10-20T06:16:04.408Z,76347.59
2022-10-20T06:26:19.527Z,76234.25
2022-10-20T06:36:23.818Z,76191.72
2022-10-20T06:46:35.073Z,76104.69
2022-10-20T06:56:37.718Z,76108.75
2022-10-20T07:06:49.907Z,76080.41
2022-10-20T07:17:01.430Z,76086.47
2022-10-20T07:27:08.135Z,76048.03
2022-10-20T07:37:20.678Z,75922.53
2022-10-20T07:47:26.377Z,75967.06
2022-10-20T07:57:31.258Z,75973.16
2022-10-20T08:07:33.519Z,75904.34
2022-10-20T08:17:37.877Z,75890.16
2022-10-20T08:27:40.132Z,75843.63
2022-10-20T08:37:46.340Z,75910.41
2022-10-20T08:47:59.420Z,75831.47
2022-10-20T08:58:03.283Z,75829.44
2022-10-20T09:08:05.511Z,75920.53
2022-10-20T09:18:12.415Z,75930.63
2022-10-20T09:28:34.842Z,75793.03
2022-10-20T09:38:47.409Z,75906.34
2022-10-20T09:48:56.252Z,75880.03
2022-10-20T09:59:15.021Z,75954.94
2022-10-20T10:09:26.678Z,75922.53
2022-10-20T10:19:33.466Z,75918.50
2022-10-20T10:29:38.414Z,75896.22
2022-10-20T10:39:45.592Z,75880.03
2022-10-20T10:49:57.287Z,75882.06
2022-10-20T11:00:04.155Z,75873.97
2022-10-20T11:10:06.272Z,75908.38
2022-10-20T11:20:19.823Z,75936.72
2022-10-20T11:30:24.093Z,75926.59
2022-10-20T11:40:32.341Z,75932.66
2022-10-20T11:50:40.655Z,75930.63
2022-10-20T12:01:02.569Z,75906.34
2022-10-20T12:11:18.848Z,75884.09
2022-10-20T12:21:57.179Z,75863.84
2022-10-20T12:32:37.080Z,75898.25
2022-10-20T12:42:53.277Z,75896.22
2022-10-20T12:52:56.411Z,75857.78
2022-10-20T13:03:01.647Z,75825.41
2022-10-20T13:13:04.581Z,75839.56
2022-10-20T13:23:11.795Z,75829.44
2022-10-20T13:34:06.231Z,75847.66
2022-10-20T13:44:37.386Z,75841.59
2022-10-20T13:54:47.009Z,75815.28
2022-10-20T14:05:05.873Z,75827.44
2022-10-20T14:15:10.247Z,75851.72
2022-10-20T14:25:15.248Z,75778.84
2022-10-20T14:35:55.342Z,75811.22
2022-10-20T14:46:00.469Z,75839.56
2022-10-20T14:56:23.027Z,75827.44
2022-10-20T15:06:29.511Z,75811.22
2022-10-20T15:16:43.312Z,75819.31
2022-10-20T15:26:48.329Z,75815.28
2022-10-20T15:36:51.188Z,75847.66
2022-10-20T15:46:58.459Z,75892.19
2022-10-20T15:57:02.728Z,75894.22
2022-10-20T16:07:06.419Z,75896.22
2022-10-20T16:17:10.963Z,75912.44
2022-10-20T16:27:13.504Z,75906.34
2022-10-20T16:37:18.279Z,75924.56
2022-10-20T16:47:21.076Z,75926.59
2022-10-20T16:57:24.301Z,75926.59
2022-10-20T17:07:31.743Z,75934.69
2022-10-20T17:17:36.515Z,75936.72
2022-10-20T17:27:38.952Z,75965.03
2022-10-20T17:37:43.630Z,75983.25
2022-10-20T17:47:52.318Z,75993.38
2022-10-20T17:57:57.175Z,76013.63
2022-10-20T18:08:05.427Z,76050.06
2022-10-20T18:18:10.828Z,76080.41
2022-10-20T18:28:13.256Z,76088.50
2022-10-20T18:38:17.672Z,76076.38
2022-10-20T18:48:20.767Z,76078.38
2022-10-20T18:58:22.933Z,76110.78
2022-10-20T19:08:30.741Z,76120.91
2022-10-20T19:18:35.669Z,76124.94
2022-10-20T19:28:45.465Z,76131.00
2022-10-20T19:38:49.946Z,76126.97
2022-10-20T21:34:45.875Z,76305.09
2022-10-20T22:48:46.453Z,76408.31
2022-10-20T22:58:52.121Z,76428.56
2022-10-20T23:08:56.197Z,76448.78
2022-10-20T23:19:01.063Z,76454.88
2022-10-20T23:29:09.053Z,76446.78
2022-10-20T23:39:20.454Z,76471.06
2022-10-20T23:49:22.898Z,76475.09
2022-10-20T23:59:29.702Z,76475.09
